sensor_id;sensor_type;location;lat;lon;timestamp;P1;durP1;ratioP1;P2;durP2;ratioP2
12467;SDS011;57850;52.922;6.256;2022-08-01T00:01:54;12.15;;;9.00;;
12467;SDS011;57850;52.922;6.256;2022-08-01T00:04:21;11.90;;;8.52;;
12467;SDS011;57850;52.922;6.256;2022-08-01T00:06:47;10.18;;;8.20;;
12467;SDS011;57850;52.922;6.256;2022-08-01T00:09:14;12.45;;;8.65;;
12467;SDS011;57850;52.922;6.256;2022-08-01T00:11:40;10.48;;;8.60;;
12467;SDS011;57850;52.922;6.256;2022-08-01T00:14:09;12.15;;;8.90;;
12467;SDS011;57850;52.922;6.256;2022-08-01T00:16:35;12.80;;;9.25;;
12467;SDS011;57850;52.922;6.256;2022-08-01T00:19:03;10.50;;;9.10;;
12467;SDS011;57850;52.922;6.256;2022-08-01T00:21:29;11.52;;;9.43;;
12467;SDS011;57850;52.922;6.256;2022-08-01T00:23:56;12.23;;;8.50;;
12467;SDS011;57850;52.922;6.256;2022-08-01T00:26:22;10.88;;;8.43;;
12467;SDS011;57850;52.922;6.256;2022-08-01T00:28:49;14.10;;;9.15;;
12467;SDS011;57850;52.922;6.256;2022-08-01T00:31:16;11.32;;;8.48;;
12467;SDS011;57850;52.922;6.256;2022-08-01T00:33:43;11.57;;;8.80;;
12467;SDS011;57850;52.922;6.256;2022-08-01T00:36:09;10.18;;;8.75;;
12467;SDS011;57850;52.922;6.256;2022-08-01T00:38:36;12.43;;;9.95;;
12467;SDS011;57850;52.922;6.256;2022-08-01T00:41:03;11.93;;;9.05;;
12467;SDS011;57850;52.922;6.256;2022-08-01T00:43:29;12.80;;;8.82;;
12467;SDS011;57850;52.922;6.256;2022-08-01T00:45:56;11.88;;;8.23;;
12467;SDS011;57850;52.922;6.256;2022-08-01T00:48:24;8.90;;;8.00;;
12467;SDS011;57850;52.922;6.256;2022-08-01T00:50:50;10.63;;;8.57;;
12467;SDS011;57850;52.922;6.256;2022-08-01T00:53:17;10.57;;;8.38;;
12467;SDS011;57850;52.922;6.256;2022-08-01T00:55:43;9.18;;;7.97;;
12467;SDS011;57850;52.922;6.256;2022-08-01T00:58:10;9.25;;;8.05;;
12467;SDS011;57850;52.922;6.256;2022-08-01T01:00:36;9.95;;;8.95;;
12467;SDS011;57850;52.922;6.256;2022-08-01T01:03:03;10.35;;;8.50;;
12467;SDS011;57850;52.922;6.256;2022-08-01T01:05:33;10.05;;;8.65;;
12467;SDS011;57850;52.922;6.256;2022-08-01T01:08:07;13.05;;;7.97;;
12467;SDS011;57850;52.922;6.256;2022-08-01T01:10:40;10.98;;;8.60;;
12467;SDS011;57850;52.922;6.256;2022-08-01T01:13:13;8.50;;;7.60;;
12467;SDS011;57850;52.922;6.256;2022-08-01T01:15:46;8.98;;;7.13;;
12467;SDS011;57850;52.922;6.256;2022-08-01T01:18:17;8.98;;;7.43;;
12467;SDS011;57850;52.922;6.256;2022-08-01T01:20:51;9.02;;;7.00;;
12467;SDS011;57850;52.922;6.256;2022-08-01T01:23:34;9.00;;;7.95;;
12467;SDS011;57850;52.922;6.256;2022-08-01T01:26:15;10.15;;;7.75;;
12467;SDS011;57850;52.922;6.256;2022-08-01T01:31:36;9.25;;;7.35;;
12467;SDS011;57850;52.922;6.256;2022-08-01T01:34:09;8.68;;;7.30;;
12467;SDS011;57850;52.922;6.256;2022-08-01T01:36:39;9.45;;;7.40;;
12467;SDS011;57850;52.922;6.256;2022-08-01T01:39:09;10.30;;;8.02;;
12467;SDS011;57850;52.922;6.256;2022-08-01T01:41:37;10.27;;;8.18;;
12467;SDS011;57850;52.922;6.256;2022-08-01T01:44:06;8.73;;;7.80;;
12467;SDS011;57850;52.922;6.256;2022-08-01T01:46:35;8.57;;;6.25;;
12467;SDS011;57850;52.922;6.256;2022-08-01T01:49:03;9.60;;;7.38;;
12467;SDS011;57850;52.922;6.256;2022-08-01T01:51:31;9.20;;;7.05;;
12467;SDS011;57850;52.922;6.256;2022-08-01T01:53:59;10.18;;;7.18;;
12467;SDS011;57850;52.922;6.256;2022-08-01T01:56:27;9.02;;;6.90;;
12467;SDS011;57850;52.922;6.256;2022-08-01T01:58:56;10.27;;;7.50;;
12467;SDS011;57850;52.922;6.256;2022-08-01T02:01:28;9.90;;;6.95;;
12467;SDS011;57850;52.922;6.256;2022-08-01T02:03:57;9.93;;;7.38;;
12467;SDS011;57850;52.922;6.256;2022-08-01T02:06:27;8.30;;;7.28;;
12467;SDS011;57850;52.922;6.256;2022-08-01T02:08:55;8.95;;;7.07;;
12467;SDS011;57850;52.922;6.256;2022-08-01T02:11:23;9.85;;;7.32;;
12467;SDS011;57850;52.922;6.256;2022-08-01T02:13:51;7.88;;;6.18;;
12467;SDS011;57850;52.922;6.256;2022-08-01T02:16:22;8.25;;;6.70;;
12467;SDS011;57850;52.922;6.256;2022-08-01T02:18:51;5.90;;;4.93;;
12467;SDS011;57850;52.922;6.256;2022-08-01T02:21:20;8.35;;;5.75;;
12467;SDS011;57850;52.922;6.256;2022-08-01T02:23:52;8.93;;;4.70;;
12467;SDS011;57850;52.922;6.256;2022-08-01T02:26:21;6.43;;;5.20;;
12467;SDS011;57850;52.922;6.256;2022-08-01T02:28:50;7.03;;;4.70;;
12467;SDS011;57850;52.922;6.256;2022-08-01T02:31:22;7.97;;;4.43;;
12467;SDS011;57850;52.922;6.256;2022-08-01T02:33:54;5.95;;;4.15;;
12467;SDS011;57850;52.922;6.256;2022-08-01T02:36:24;5.70;;;3.60;;
12467;SDS011;57850;52.922;6.256;2022-08-01T02:38:52;5.13;;;3.17;;
12467;SDS011;57850;52.922;6.256;2022-08-01T02:41:21;3.95;;;2.88;;
12467;SDS011;57850;52.922;6.256;2022-08-01T02:43:51;4.57;;;3.20;;
12467;SDS011;57850;52.922;6.256;2022-08-01T02:46:21;3.53;;;2.83;;
12467;SDS011;57850;52.922;6.256;2022-08-01T02:48:52;4.97;;;2.70;;
12467;SDS011;57850;52.922;6.256;2022-08-01T02:51:19;6.43;;;2.65;;
12467;SDS011;57850;52.922;6.256;2022-08-01T02:53:49;8.02;;;2.90;;
12467;SDS011;57850;52.922;6.256;2022-08-01T02:56:17;3.97;;;2.20;;
12467;SDS011;57850;52.922;6.256;2022-08-01T02:58:46;2.88;;;2.40;;
12467;SDS011;57850;52.922;6.256;2022-08-01T03:01:13;5.95;;;2.75;;
12467;SDS011;57850;52.922;6.256;2022-08-01T03:03:42;4.97;;;2.75;;
12467;SDS011;57850;52.922;6.256;2022-08-01T03:06:10;3.80;;;2.40;;
12467;SDS011;57850;52.922;6.256;2022-08-01T03:08:38;4.85;;;2.60;;
12467;SDS011;57850;52.922;6.256;2022-08-01T03:11:06;5.18;;;3.05;;
12467;SDS011;57850;52.922;6.256;2022-08-01T03:13:34;4.05;;;3.13;;
12467;SDS011;57850;52.922;6.256;2022-08-01T03:16:02;4.68;;;3.28;;
12467;SDS011;57850;52.922;6.256;2022-08-01T03:18:30;9.10;;;3.85;;
12467;SDS011;57850;52.922;6.256;2022-08-01T03:20:59;5.80;;;3.20;;
12467;SDS011;57850;52.922;6.256;2022-08-01T03:23:28;3.70;;;3.20;;
12467;SDS011;57850;52.922;6.256;2022-08-01T03:25:57;8.98;;;3.45;;
12467;SDS011;57850;52.922;6.256;2022-08-01T03:28:26;6.53;;;3.38;;
12467;SDS011;57850;52.922;6.256;2022-08-01T03:30:55;5.50;;;3.13;;
12467;SDS011;57850;52.922;6.256;2022-08-01T03:33:22;7.35;;;2.95;;
12467;SDS011;57850;52.922;6.256;2022-08-01T03:35:49;10.95;;;3.42;;
12467;SDS011;57850;52.922;6.256;2022-08-01T03:38:22;8.55;;;3.78;;
12467;SDS011;57850;52.922;6.256;2022-08-01T03:40:53;7.38;;;3.50;;
12467;SDS011;57850;52.922;6.256;2022-08-01T03:43:22;5.50;;;3.42;;
12467;SDS011;57850;52.922;6.256;2022-08-01T03:45:57;6.13;;;3.45;;
12467;SDS011;57850;52.922;6.256;2022-08-01T03:48:30;5.72;;;3.50;;
12467;SDS011;57850;52.922;6.256;2022-08-01T03:50:59;8.27;;;3.70;;
12467;SDS011;57850;52.922;6.256;2022-08-01T03:53:26;4.45;;;3.33;;
12467;SDS011;57850;52.922;6.256;2022-08-01T03:55:57;8.18;;;4.15;;
12467;SDS011;57850;52.922;6.256;2022-08-01T03:58:26;7.30;;;3.53;;
12467;SDS011;57850;52.922;6.256;2022-08-01T04:00:53;10.02;;;3.40;;
12467;SDS011;57850;52.922;6.256;2022-08-01T04:03:21;9.07;;;4.07;;
12467;SDS011;57850;52.922;6.256;2022-08-01T04:05:48;9.10;;;3.28;;
12467;SDS011;57850;52.922;6.256;2022-08-01T04:08:15;13.15;;;4.15;;
12467;SDS011;57850;52.922;6.256;2022-08-01T04:10:42;7.93;;;3.60;;
12467;SDS011;57850;52.922;6.256;2022-08-01T04:13:10;10.40;;;3.72;;
12467;SDS011;57850;52.922;6.256;2022-08-01T04:15:36;7.63;;;3.90;;
12467;SDS011;57850;52.922;6.256;2022-08-01T04:18:03;9.90;;;4.05;;
12467;SDS011;57850;52.922;6.256;2022-08-01T04:20:31;8.40;;;4.22;;
12467;SDS011;57850;52.922;6.256;2022-08-01T04:23:00;9.55;;;4.60;;
12467;SDS011;57850;52.922;6.256;2022-08-01T04:25:28;13.40;;;4.20;;
12467;SDS011;57850;52.922;6.256;2022-08-01T04:27:58;12.73;;;4.57;;
12467;SDS011;57850;52.922;6.256;2022-08-01T04:30:31;9.02;;;4.20;;
12467;SDS011;57850;52.922;6.256;2022-08-01T04:33:01;8.93;;;4.03;;
12467;SDS011;57850;52.922;6.256;2022-08-01T04:35:31;10.30;;;4.72;;
12467;SDS011;57850;52.922;6.256;2022-08-01T04:38:00;12.02;;;4.43;;
12467;SDS011;57850;52.922;6.256;2022-08-01T04:40:28;11.60;;;4.80;;
12467;SDS011;57850;52.922;6.256;2022-08-01T04:42:55;13.57;;;5.05;;
12467;SDS011;57850;52.922;6.256;2022-08-01T04:45:22;16.33;;;5.18;;
12467;SDS011;57850;52.922;6.256;2022-08-01T04:47:51;10.80;;;4.55;;
12467;SDS011;57850;52.922;6.256;2022-08-01T04:50:18;11.80;;;4.45;;
12467;SDS011;57850;52.922;6.256;2022-08-01T04:52:46;15.43;;;4.50;;
12467;SDS011;57850;52.922;6.256;2022-08-01T04:55:13;13.50;;;4.32;;
12467;SDS011;57850;52.922;6.256;2022-08-01T04:57:42;14.00;;;4.50;;
12467;SDS011;57850;52.922;6.256;2022-08-01T05:00:10;13.35;;;4.72;;
12467;SDS011;57850;52.922;6.256;2022-08-01T05:02:37;10.15;;;4.43;;
12467;SDS011;57850;52.922;6.256;2022-08-01T05:05:06;11.82;;;4.85;;
12467;SDS011;57850;52.922;6.256;2022-08-01T05:07:33;12.38;;;4.72;;
12467;SDS011;57850;52.922;6.256;2022-08-01T05:10:01;14.48;;;4.43;;
12467;SDS011;57850;52.922;6.256;2022-08-01T05:12:28;8.55;;;4.18;;
12467;SDS011;57850;52.922;6.256;2022-08-01T05:14:56;9.95;;;4.03;;
12467;SDS011;57850;52.922;6.256;2022-08-01T05:17:23;16.67;;;4.57;;
12467;SDS011;57850;52.922;6.256;2022-08-01T05:19:49;14.30;;;4.85;;
12467;SDS011;57850;52.922;6.256;2022-08-01T05:22:17;13.35;;;4.35;;
12467;SDS011;57850;52.922;6.256;2022-08-01T05:24:44;9.85;;;3.67;;
12467;SDS011;57850;52.922;6.256;2022-08-01T05:27:12;13.48;;;4.60;;
12467;SDS011;57850;52.922;6.256;2022-08-01T05:29:38;12.85;;;4.22;;
12467;SDS011;57850;52.922;6.256;2022-08-01T05:32:05;19.80;;;4.60;;
12467;SDS011;57850;52.922;6.256;2022-08-01T05:34:32;13.43;;;4.38;;
12467;SDS011;57850;52.922;6.256;2022-08-01T05:36:58;15.50;;;5.18;;
12467;SDS011;57850;52.922;6.256;2022-08-01T05:39:26;13.48;;;4.15;;
12467;SDS011;57850;52.922;6.256;2022-08-01T05:41:53;19.10;;;4.63;;
12467;SDS011;57850;52.922;6.256;2022-08-01T05:44:19;14.13;;;4.10;;
12467;SDS011;57850;52.922;6.256;2022-08-01T05:46:47;17.42;;;5.40;;
12467;SDS011;57850;52.922;6.256;2022-08-01T05:49:13;12.13;;;4.60;;
12467;SDS011;57850;52.922;6.256;2022-08-01T05:51:40;16.40;;;4.32;;
12467;SDS011;57850;52.922;6.256;2022-08-01T05:54:06;15.15;;;4.20;;
12467;SDS011;57850;52.922;6.256;2022-08-01T05:56:35;21.90;;;4.25;;
12467;SDS011;57850;52.922;6.256;2022-08-01T05:59:01;15.93;;;4.00;;
12467;SDS011;57850;52.922;6.256;2022-08-01T06:01:28;14.68;;;3.72;;
12467;SDS011;57850;52.922;6.256;2022-08-01T06:03:55;17.67;;;5.00;;
12467;SDS011;57850;52.922;6.256;2022-08-01T06:06:21;13.05;;;4.13;;
12467;SDS011;57850;52.922;6.256;2022-08-01T06:08:48;13.45;;;4.13;;
12467;SDS011;57850;52.922;6.256;2022-08-01T06:11:15;13.27;;;4.07;;
12467;SDS011;57850;52.922;6.256;2022-08-01T06:13:43;17.15;;;4.60;;
12467;SDS011;57850;52.922;6.256;2022-08-01T06:16:09;14.00;;;4.13;;
12467;SDS011;57850;52.922;6.256;2022-08-01T06:18:36;16.92;;;4.00;;
12467;SDS011;57850;52.922;6.256;2022-08-01T06:21:02;11.00;;;4.10;;
12467;SDS011;57850;52.922;6.256;2022-08-01T06:23:29;13.43;;;3.95;;
12467;SDS011;57850;52.922;6.256;2022-08-01T06:25:55;19.73;;;3.80;;
12467;SDS011;57850;52.922;6.256;2022-08-01T06:28:23;20.70;;;5.15;;
12467;SDS011;57850;52.922;6.256;2022-08-01T06:30:50;14.50;;;4.03;;
12467;SDS011;57850;52.922;6.256;2022-08-01T06:33:18;14.98;;;4.20;;
12467;SDS011;57850;52.922;6.256;2022-08-01T06:35:44;19.25;;;4.47;;
12467;SDS011;57850;52.922;6.256;2022-08-01T06:38:11;24.02;;;4.55;;
12467;SDS011;57850;52.922;6.256;2022-08-01T06:40:37;18.00;;;3.92;;
12467;SDS011;57850;52.922;6.256;2022-08-01T06:43:05;11.13;;;4.28;;
12467;SDS011;57850;52.922;6.256;2022-08-01T06:45:32;19.23;;;4.93;;
12467;SDS011;57850;52.922;6.256;2022-08-01T06:48:03;15.82;;;4.63;;
12467;SDS011;57850;52.922;6.256;2022-08-01T06:50:30;14.60;;;3.88;;
12467;SDS011;57850;52.922;6.256;2022-08-01T06:52:56;13.82;;;4.07;;
12467;SDS011;57850;52.922;6.256;2022-08-01T06:55:23;18.10;;;3.95;;
12467;SDS011;57850;52.922;6.256;2022-08-01T06:57:50;15.88;;;4.10;;
12467;SDS011;57850;52.922;6.256;2022-08-01T07:00:18;15.80;;;4.25;;
12467;SDS011;57850;52.922;6.256;2022-08-01T07:02:47;13.10;;;4.32;;
12467;SDS011;57850;52.922;6.256;2022-08-01T07:05:15;15.30;;;4.18;;
12467;SDS011;57850;52.922;6.256;2022-08-01T07:07:42;19.08;;;4.30;;
12467;SDS011;57850;52.922;6.256;2022-08-01T07:10:08;13.63;;;4.60;;
12467;SDS011;57850;52.922;6.256;2022-08-01T07:12:36;21.20;;;4.80;;
12467;SDS011;57850;52.922;6.256;2022-08-01T07:15:03;17.17;;;4.50;;
12467;SDS011;57850;52.922;6.256;2022-08-01T07:17:31;14.27;;;3.88;;
12467;SDS011;57850;52.922;6.256;2022-08-01T07:19:57;15.07;;;4.07;;
12467;SDS011;57850;52.922;6.256;2022-08-01T07:22:25;13.05;;;3.95;;
12467;SDS011;57850;52.922;6.256;2022-08-01T07:24:51;11.27;;;3.58;;
12467;SDS011;57850;52.922;6.256;2022-08-01T07:27:18;13.05;;;4.13;;
12467;SDS011;57850;52.922;6.256;2022-08-01T07:29:44;19.40;;;4.35;;
12467;SDS011;57850;52.922;6.256;2022-08-01T07:32:11;14.45;;;4.00;;
12467;SDS011;57850;52.922;6.256;2022-08-01T07:34:37;17.42;;;4.38;;
12467;SDS011;57850;52.922;6.256;2022-08-01T07:37:04;14.63;;;4.30;;
12467;SDS011;57850;52.922;6.256;2022-08-01T07:39:32;14.02;;;4.05;;
12467;SDS011;57850;52.922;6.256;2022-08-01T07:41:59;17.33;;;4.30;;
12467;SDS011;57850;52.922;6.256;2022-08-01T07:44:25;10.13;;;3.33;;
12467;SDS011;57850;52.922;6.256;2022-08-01T07:46:52;10.75;;;3.30;;
12467;SDS011;57850;52.922;6.256;2022-08-01T07:49:18;16.63;;;3.97;;
12467;SDS011;57850;52.922;6.256;2022-08-01T07:51:46;11.93;;;3.20;;
12467;SDS011;57850;52.922;6.256;2022-08-01T07:54:13;10.95;;;3.47;;
12467;SDS011;57850;52.922;6.256;2022-08-01T07:56:40;16.60;;;3.95;;
12467;SDS011;57850;52.922;6.256;2022-08-01T07:59:07;10.77;;;3.50;;
12467;SDS011;57850;52.922;6.256;2022-08-01T08:01:33;14.90;;;3.58;;
12467;SDS011;57850;52.922;6.256;2022-08-01T08:04:00;12.93;;;3.55;;
12467;SDS011;57850;52.922;6.256;2022-08-01T08:06:27;12.40;;;3.90;;
12467;SDS011;57850;52.922;6.256;2022-08-01T08:08:54;9.30;;;3.08;;
12467;SDS011;57850;52.922;6.256;2022-08-01T08:11:20;14.65;;;3.85;;
12467;SDS011;57850;52.922;6.256;2022-08-01T08:13:48;14.77;;;3.35;;
12467;SDS011;57850;52.922;6.256;2022-08-01T08:16:14;9.90;;;3.00;;
12467;SDS011;57850;52.922;6.256;2022-08-01T08:18:41;9.77;;;2.83;;
12467;SDS011;57850;52.922;6.256;2022-08-01T08:21:07;14.70;;;3.53;;
12467;SDS011;57850;52.922;6.256;2022-08-01T08:23:34;12.32;;;3.83;;
12467;SDS011;57850;52.922;6.256;2022-08-01T08:26:18;8.18;;;2.88;;
12467;SDS011;57850;52.922;6.256;2022-08-01T08:28:45;8.98;;;2.80;;
12467;SDS011;57850;52.922;6.256;2022-08-01T08:31:12;8.68;;;2.75;;
12467;SDS011;57850;52.922;6.256;2022-08-01T08:33:39;12.50;;;3.17;;
12467;SDS011;57850;52.922;6.256;2022-08-01T08:36:05;14.95;;;4.15;;
12467;SDS011;57850;52.922;6.256;2022-08-01T08:38:32;12.13;;;3.20;;
12467;SDS011;57850;52.922;6.256;2022-08-01T08:40:59;9.45;;;3.20;;
12467;SDS011;57850;52.922;6.256;2022-08-01T08:43:25;12.68;;;3.45;;
12467;SDS011;57850;52.922;6.256;2022-08-01T08:45:52;10.20;;;3.03;;
12467;SDS011;57850;52.922;6.256;2022-08-01T08:48:21;9.90;;;2.65;;
12467;SDS011;57850;52.922;6.256;2022-08-01T08:50:48;10.85;;;2.95;;
12467;SDS011;57850;52.922;6.256;2022-08-01T08:53:15;9.77;;;3.17;;
12467;SDS011;57850;52.922;6.256;2022-08-01T08:55:42;13.00;;;2.75;;
12467;SDS011;57850;52.922;6.256;2022-08-01T08:58:10;10.18;;;2.88;;
12467;SDS011;57850;52.922;6.256;2022-08-01T09:00:38;9.93;;;2.78;;
12467;SDS011;57850;52.922;6.256;2022-08-01T09:03:05;10.10;;;2.92;;
12467;SDS011;57850;52.922;6.256;2022-08-01T09:05:33;8.75;;;2.70;;
12467;SDS011;57850;52.922;6.256;2022-08-01T09:08:00;7.03;;;2.60;;
12467;SDS011;57850;52.922;6.256;2022-08-01T09:10:26;9.38;;;2.65;;
12467;SDS011;57850;52.922;6.256;2022-08-01T09:13:06;8.60;;;2.78;;
12467;SDS011;57850;52.922;6.256;2022-08-01T09:15:39;10.85;;;2.90;;
12467;SDS011;57850;52.922;6.256;2022-08-01T09:18:07;8.15;;;2.22;;
12467;SDS011;57850;52.922;6.256;2022-08-01T09:20:36;10.93;;;2.55;;
12467;SDS011;57850;52.922;6.256;2022-08-01T09:23:02;12.32;;;3.03;;
12467;SDS011;57850;52.922;6.256;2022-08-01T09:25:29;12.18;;;2.97;;
12467;SDS011;57850;52.922;6.256;2022-08-01T09:28:02;6.88;;;2.40;;
12467;SDS011;57850;52.922;6.256;2022-08-01T09:30:31;6.85;;;2.58;;
12467;SDS011;57850;52.922;6.256;2022-08-01T09:33:03;9.48;;;2.45;;
12467;SDS011;57850;52.922;6.256;2022-08-01T09:35:31;6.88;;;2.75;;
12467;SDS011;57850;52.922;6.256;2022-08-01T09:38:16;9.27;;;2.95;;
12467;SDS011;57850;52.922;6.256;2022-08-01T09:40:45;6.55;;;2.63;;
12467;SDS011;57850;52.922;6.256;2022-08-01T09:43:12;8.85;;;2.80;;
12467;SDS011;57850;52.922;6.256;2022-08-01T09:45:39;11.30;;;2.92;;
12467;SDS011;57850;52.922;6.256;2022-08-01T09:48:06;7.30;;;2.25;;
12467;SDS011;57850;52.922;6.256;2022-08-01T09:50:38;8.90;;;2.60;;
12467;SDS011;57850;52.922;6.256;2022-08-01T09:53:06;7.63;;;2.30;;
12467;SDS011;57850;52.922;6.256;2022-08-01T09:55:34;7.00;;;2.28;;
12467;SDS011;57850;52.922;6.256;2022-08-01T09:58:01;6.07;;;2.60;;
12467;SDS011;57850;52.922;6.256;2022-08-01T10:00:30;8.60;;;2.55;;
12467;SDS011;57850;52.922;6.256;2022-08-01T10:02:57;6.85;;;2.38;;
12467;SDS011;57850;52.922;6.256;2022-08-01T10:05:30;8.65;;;2.50;;
12467;SDS011;57850;52.922;6.256;2022-08-01T10:08:02;8.23;;;2.60;;
12467;SDS011;57850;52.922;6.256;2022-08-01T10:10:30;7.60;;;2.80;;
12467;SDS011;57850;52.922;6.256;2022-08-01T10:12:58;6.80;;;2.65;;
12467;SDS011;57850;52.922;6.256;2022-08-01T10:15:25;6.63;;;2.42;;
12467;SDS011;57850;52.922;6.256;2022-08-01T10:17:53;8.15;;;2.40;;
12467;SDS011;57850;52.922;6.256;2022-08-01T10:20:23;5.82;;;2.28;;
12467;SDS011;57850;52.922;6.256;2022-08-01T10:22:52;6.68;;;2.25;;
12467;SDS011;57850;52.922;6.256;2022-08-01T10:25:20;5.55;;;2.35;;
12467;SDS011;57850;52.922;6.256;2022-08-01T10:27:48;4.43;;;2.03;;
12467;SDS011;57850;52.922;6.256;2022-08-01T10:30:18;5.40;;;2.30;;
12467;SDS011;57850;52.922;6.256;2022-08-01T10:32:45;7.15;;;2.28;;
12467;SDS011;57850;52.922;6.256;2022-08-01T10:35:12;5.82;;;2.30;;
12467;SDS011;57850;52.922;6.256;2022-08-01T10:37:43;5.22;;;2.30;;
12467;SDS011;57850;52.922;6.256;2022-08-01T10:40:11;6.43;;;2.47;;
12467;SDS011;57850;52.922;6.256;2022-08-01T10:42:39;6.57;;;2.78;;
12467;SDS011;57850;52.922;6.256;2022-08-01T10:45:06;4.30;;;2.30;;
12467;SDS011;57850;52.922;6.256;2022-08-01T10:47:37;5.05;;;2.55;;
12467;SDS011;57850;52.922;6.256;2022-08-01T10:50:11;5.68;;;2.33;;
12467;SDS011;57850;52.922;6.256;2022-08-01T10:55:46;6.55;;;2.28;;
12467;SDS011;57850;52.922;6.256;2022-08-01T10:58:19;4.53;;;2.10;;
12467;SDS011;57850;52.922;6.256;2022-08-01T11:00:47;4.50;;;2.30;;
12467;SDS011;57850;52.922;6.256;2022-08-01T11:03:14;7.63;;;2.47;;
12467;SDS011;57850;52.922;6.256;2022-08-01T11:05:41;7.38;;;2.13;;
12467;SDS011;57850;52.922;6.256;2022-08-01T11:08:11;8.57;;;2.65;;
12467;SDS011;57850;52.922;6.256;2022-08-01T11:10:47;4.28;;;2.22;;
12467;SDS011;57850;52.922;6.256;2022-08-01T11:13:14;4.90;;;2.35;;
12467;SDS011;57850;52.922;6.256;2022-08-01T11:15:41;7.75;;;2.63;;
12467;SDS011;57850;52.922;6.256;2022-08-01T11:20:58;5.93;;;2.45;;
12467;SDS011;57850;52.922;6.256;2022-08-01T11:23:26;6.40;;;2.88;;
12467;SDS011;57850;52.922;6.256;2022-08-01T11:26:06;6.25;;;2.28;;
12467;SDS011;57850;52.922;6.256;2022-08-01T11:28:34;6.10;;;2.53;;
12467;SDS011;57850;52.922;6.256;2022-08-01T11:33:54;5.68;;;2.30;;
12467;SDS011;57850;52.922;6.256;2022-08-01T11:36:20;4.78;;;2.22;;
12467;SDS011;57850;52.922;6.256;2022-08-01T11:38:49;4.93;;;2.40;;
12467;SDS011;57850;52.922;6.256;2022-08-01T11:41:37;8.57;;;2.60;;
12467;SDS011;57850;52.922;6.256;2022-08-01T11:44:04;7.05;;;2.40;;
12467;SDS011;57850;52.922;6.256;2022-08-01T11:46:51;3.70;;;2.10;;
12467;SDS011;57850;52.922;6.256;2022-08-01T11:49:33;7.72;;;2.60;;
12467;SDS011;57850;52.922;6.256;2022-08-01T11:52:11;3.70;;;2.10;;
12467;SDS011;57850;52.922;6.256;2022-08-01T11:54:40;6.85;;;2.67;;
12467;SDS011;57850;52.922;6.256;2022-08-01T11:57:09;5.78;;;2.13;;
12467;SDS011;57850;52.922;6.256;2022-08-01T11:59:37;4.95;;;2.80;;
12467;SDS011;57850;52.922;6.256;2022-08-01T12:02:14;6.75;;;1.98;;
12467;SDS011;57850;52.922;6.256;2022-08-01T12:04:48;6.03;;;2.58;;
12467;SDS011;57850;52.922;6.256;2022-08-01T12:07:16;3.58;;;2.13;;
12467;SDS011;57850;52.922;6.256;2022-08-01T12:09:45;4.25;;;2.03;;
12467;SDS011;57850;52.922;6.256;2022-08-01T12:12:14;6.10;;;2.47;;
12467;SDS011;57850;52.922;6.256;2022-08-01T12:14:43;5.03;;;2.28;;
12467;SDS011;57850;52.922;6.256;2022-08-01T12:17:10;5.68;;;2.30;;
12467;SDS011;57850;52.922;6.256;2022-08-01T12:19:37;4.63;;;2.42;;
12467;SDS011;57850;52.922;6.256;2022-08-01T12:22:10;5.63;;;2.53;;
12467;SDS011;57850;52.922;6.256;2022-08-01T12:24:38;3.97;;;2.10;;
12467;SDS011;57850;52.922;6.256;2022-08-01T12:27:06;7.57;;;2.45;;
12467;SDS011;57850;52.922;6.256;2022-08-01T12:29:35;5.38;;;2.60;;
12467;SDS011;57850;52.922;6.256;2022-08-01T12:32:03;5.30;;;2.25;;
12467;SDS011;57850;52.922;6.256;2022-08-01T12:34:46;3.38;;;2.10;;
12467;SDS011;57850;52.922;6.256;2022-08-01T12:37:14;5.45;;;2.65;;
12467;SDS011;57850;52.922;6.256;2022-08-01T12:39:41;6.45;;;2.28;;
12467;SDS011;57850;52.922;6.256;2022-08-01T12:42:07;4.75;;;2.40;;
12467;SDS011;57850;52.922;6.256;2022-08-01T12:44:35;4.75;;;2.40;;
12467;SDS011;57850;52.922;6.256;2022-08-01T12:47:03;6.88;;;2.63;;
12467;SDS011;57850;52.922;6.256;2022-08-01T12:49:31;5.40;;;2.33;;
12467;SDS011;57850;52.922;6.256;2022-08-01T12:51:58;4.55;;;2.45;;
12467;SDS011;57850;52.922;6.256;2022-08-01T12:54:28;5.57;;;2.70;;
12467;SDS011;57850;52.922;6.256;2022-08-01T12:56:54;5.00;;;2.60;;
12467;SDS011;57850;52.922;6.256;2022-08-01T12:59:22;6.25;;;2.60;;
12467;SDS011;57850;52.922;6.256;2022-08-01T13:01:50;4.60;;;2.47;;
12467;SDS011;57850;52.922;6.256;2022-08-01T13:04:17;5.93;;;2.50;;
12467;SDS011;57850;52.922;6.256;2022-08-01T13:06:44;3.65;;;2.45;;
12467;SDS011;57850;52.922;6.256;2022-08-01T13:09:12;4.88;;;2.20;;
12467;SDS011;57850;52.922;6.256;2022-08-01T13:11:40;5.57;;;2.22;;
12467;SDS011;57850;52.922;6.256;2022-08-01T13:14:08;4.70;;;2.08;;
12467;SDS011;57850;52.922;6.256;2022-08-01T13:16:45;4.47;;;2.35;;
12467;SDS011;57850;52.922;6.256;2022-08-01T13:19:13;5.30;;;2.15;;
12467;SDS011;57850;52.922;6.256;2022-08-01T13:21:40;5.60;;;2.47;;
12467;SDS011;57850;52.922;6.256;2022-08-01T13:24:24;3.83;;;1.88;;
12467;SDS011;57850;52.922;6.256;2022-08-01T13:26:54;5.07;;;2.35;;
12467;SDS011;57850;52.922;6.256;2022-08-01T13:29:28;4.47;;;2.50;;
12467;SDS011;57850;52.922;6.256;2022-08-01T13:31:56;3.20;;;2.28;;
12467;SDS011;57850;52.922;6.256;2022-08-01T13:34:29;3.83;;;2.40;;
12467;SDS011;57850;52.922;6.256;2022-08-01T13:36:56;4.32;;;2.35;;
12467;SDS011;57850;52.922;6.256;2022-08-01T13:39:22;6.95;;;2.33;;
12467;SDS011;57850;52.922;6.256;2022-08-01T13:42:10;3.88;;;2.10;;
12467;SDS011;57850;52.922;6.256;2022-08-01T13:44:39;6.55;;;2.42;;
12467;SDS011;57850;52.922;6.256;2022-08-01T13:47:05;5.30;;;2.10;;
12467;SDS011;57850;52.922;6.256;2022-08-01T13:49:33;5.15;;;2.00;;
12467;SDS011;57850;52.922;6.256;2022-08-01T13:52:00;4.35;;;2.10;;
12467;SDS011;57850;52.922;6.256;2022-08-01T13:54:27;5.68;;;1.98;;
12467;SDS011;57850;52.922;6.256;2022-08-01T13:56:53;4.90;;;2.22;;
12467;SDS011;57850;52.922;6.256;2022-08-01T13:59:21;3.78;;;1.92;;
12467;SDS011;57850;52.922;6.256;2022-08-01T14:01:51;6.07;;;2.17;;
12467;SDS011;57850;52.922;6.256;2022-08-01T14:04:18;4.72;;;2.40;;
12467;SDS011;57850;52.922;6.256;2022-08-01T14:06:45;6.15;;;2.10;;
12467;SDS011;57850;52.922;6.256;2022-08-01T14:09:14;4.03;;;1.60;;
12467;SDS011;57850;52.922;6.256;2022-08-01T14:11:44;6.82;;;2.33;;
12467;SDS011;57850;52.922;6.256;2022-08-01T14:14:10;5.90;;;2.40;;
12467;SDS011;57850;52.922;6.256;2022-08-01T14:16:41;5.35;;;2.00;;
12467;SDS011;57850;52.922;6.256;2022-08-01T14:19:09;5.63;;;1.88;;
12467;SDS011;57850;52.922;6.256;2022-08-01T14:21:40;7.00;;;2.28;;
12467;SDS011;57850;52.922;6.256;2022-08-01T14:24:07;5.50;;;2.50;;
12467;SDS011;57850;52.922;6.256;2022-08-01T14:26:35;3.17;;;1.65;;
12467;SDS011;57850;52.922;6.256;2022-08-01T14:29:01;4.10;;;2.15;;
12467;SDS011;57850;52.922;6.256;2022-08-01T14:31:28;7.63;;;2.15;;
12467;SDS011;57850;52.922;6.256;2022-08-01T14:33:56;5.38;;;2.10;;
12467;SDS011;57850;52.922;6.256;2022-08-01T14:36:23;4.05;;;1.95;;
12467;SDS011;57850;52.922;6.256;2022-08-01T14:38:49;6.53;;;2.15;;
12467;SDS011;57850;52.922;6.256;2022-08-01T14:41:16;6.68;;;2.58;;
12467;SDS011;57850;52.922;6.256;2022-08-01T14:43:42;4.30;;;2.00;;
12467;SDS011;57850;52.922;6.256;2022-08-01T14:46:09;6.28;;;1.92;;
12467;SDS011;57850;52.922;6.256;2022-08-01T14:48:40;3.33;;;1.60;;
12467;SDS011;57850;52.922;6.256;2022-08-01T14:51:08;3.28;;;1.77;;
12467;SDS011;57850;52.922;6.256;2022-08-01T14:53:35;5.57;;;2.00;;
12467;SDS011;57850;52.922;6.256;2022-08-01T14:56:02;5.72;;;2.03;;
12467;SDS011;57850;52.922;6.256;2022-08-01T14:58:30;4.20;;;2.03;;
12467;SDS011;57850;52.922;6.256;2022-08-01T15:00:57;4.72;;;1.98;;
12467;SDS011;57850;52.922;6.256;2022-08-01T15:03:24;6.13;;;2.10;;